KSCD

Merkel Field Sylacauga Municipal Airport

Sylacauga, Alabama, USA
METAR KSCD 250515Z AUTO 00000KT 3SM BR SCT041 BKN050 BKN070 21/21 A3008 RMK AO2 LTG DSNT E T02090209
Observed Flight Rules
May-25 @ 05:15 UTC (9 minutes ago) Marginal Visual Flight Rules
Visibility Clouds Conditions
3 miles
  • Scattered at 4,100' AGL
  • Broken at 5,000' AGL
  • Broken at 7,000' AGL
  • Mist
Temperatures Readings
Current 21°C / 70°F
Dewpoint 21°C / 70°F
Humidity 100%
Altimeter 30.08" Hg
Pressure 1019 hPa
Elevation 173
METAR KSCD 250515Z AUTO 00000KT 3SM BR SCT041 BKN050 BKN070 21/21 A3008 RMK AO2 LTG DSNT E T02090209
Observed Flight Rules
May-25 @ 05:15 UTC
(9 minutes ago)
MVFR
Clouds
  • Scattered at 4,100' AGL
  • Broken at 5,000' AGL
  • Broken at 7,000' AGL
Conditions
  • Mist
Temperature Dewpoint
21°C / 70°F 21°C / 70°F
Humidity Altimeter Pressure
100% 30.08" Hg 1019 hPa